sensor_id;sensor_type;location;lat;lon;timestamp;P1;durP1;ratioP1;P2;durP2;ratioP2
10299;SDS011;5195;48.562;9.192;2022-12-07T00:00:04;6.50;;;6.00;;
10299;SDS011;5195;48.562;9.192;2022-12-07T00:02:30;6.62;;;6.20;;
10299;SDS011;5195;48.562;9.192;2022-12-07T00:04:55;6.43;;;6.00;;
10299;SDS011;5195;48.562;9.192;2022-12-07T00:07:21;6.57;;;6.17;;
10299;SDS011;5195;48.562;9.192;2022-12-07T00:09:46;5.55;;;5.25;;
10299;SDS011;5195;48.562;9.192;2022-12-07T00:12:12;5.30;;;4.87;;
10299;SDS011;5195;48.562;9.192;2022-12-07T00:14:37;5.20;;;4.80;;
10299;SDS011;5195;48.562;9.192;2022-12-07T00:17:03;5.70;;;5.30;;
10299;SDS011;5195;48.562;9.192;2022-12-07T00:19:28;6.07;;;5.68;;
10299;SDS011;5195;48.562;9.192;2022-12-07T00:21:54;6.78;;;6.28;;
10299;SDS011;5195;48.562;9.192;2022-12-07T00:24:20;6.10;;;5.78;;
10299;SDS011;5195;48.562;9.192;2022-12-07T00:26:45;5.37;;;4.97;;
10299;SDS011;5195;48.562;9.192;2022-12-07T00:29:18;6.27;;;5.83;;
10299;SDS011;5195;48.562;9.192;2022-12-07T00:31:43;5.95;;;5.65;;
10299;SDS011;5195;48.562;9.192;2022-12-07T00:34:17;5.87;;;5.47;;
10299;SDS011;5195;48.562;9.192;2022-12-07T00:36:41;6.25;;;5.85;;
10299;SDS011;5195;48.562;9.192;2022-12-07T00:39:07;6.10;;;5.70;;
10299;SDS011;5195;48.562;9.192;2022-12-07T00:41:33;5.50;;;5.10;;
10299;SDS011;5195;48.562;9.192;2022-12-07T00:43:59;6.12;;;5.72;;
10299;SDS011;5195;48.562;9.192;2022-12-07T00:46:25;5.93;;;5.53;;
10299;SDS011;5195;48.562;9.192;2022-12-07T00:48:51;6.17;;;5.77;;
10299;SDS011;5195;48.562;9.192;2022-12-07T00:51:19;6.17;;;5.77;;
10299;SDS011;5195;48.562;9.192;2022-12-07T00:53:43;5.30;;;4.90;;
10299;SDS011;5195;48.562;9.192;2022-12-07T00:58:57;5.77;;;5.37;;
10299;SDS011;5195;48.562;9.192;2022-12-07T01:01:33;5.50;;;5.10;;
10299;SDS011;5195;48.562;9.192;2022-12-07T01:04:07;5.20;;;4.80;;
10299;SDS011;5195;48.562;9.192;2022-12-07T01:06:43;5.73;;;5.23;;
10299;SDS011;5195;48.562;9.192;2022-12-07T01:09:19;6.47;;;5.97;;
10299;SDS011;5195;48.562;9.192;2022-12-07T01:11:54;5.63;;;5.23;;
10299;SDS011;5195;48.562;9.192;2022-12-07T01:14:30;7.00;;;6.40;;
10299;SDS011;5195;48.562;9.192;2022-12-07T01:17:06;5.77;;;5.37;;
10299;SDS011;5195;48.562;9.192;2022-12-07T01:19:42;6.73;;;6.33;;
10299;SDS011;5195;48.562;9.192;2022-12-07T01:22:17;6.80;;;6.20;;
10299;SDS011;5195;48.562;9.192;2022-12-07T01:24:54;7.07;;;6.47;;
10299;SDS011;5195;48.562;9.192;2022-12-07T01:27:29;5.77;;;5.37;;
10299;SDS011;5195;48.562;9.192;2022-12-07T01:30:06;6.73;;;6.23;;
10299;SDS011;5195;48.562;9.192;2022-12-07T01:32:42;7.30;;;6.70;;
10299;SDS011;5195;48.562;9.192;2022-12-07T01:35:17;5.67;;;5.37;;
10299;SDS011;5195;48.562;9.192;2022-12-07T01:37:53;5.70;;;5.30;;
10299;SDS011;5195;48.562;9.192;2022-12-07T01:40:29;5.40;;;4.90;;
10299;SDS011;5195;48.562;9.192;2022-12-07T01:43:13;6.65;;;6.15;;
10299;SDS011;5195;48.562;9.192;2022-12-07T01:45:51;6.80;;;6.30;;
10299;SDS011;5195;48.562;9.192;2022-12-07T01:48:37;6.30;;;5.90;;
10299;SDS011;5195;48.562;9.192;2022-12-07T01:51:13;6.63;;;6.10;;
10299;SDS011;5195;48.562;9.192;2022-12-07T01:53:48;6.73;;;6.30;;
10299;SDS011;5195;48.562;9.192;2022-12-07T01:56:25;7.00;;;6.47;;
10299;SDS011;5195;48.562;9.192;2022-12-07T01:59:00;5.53;;;5.13;;
10299;SDS011;5195;48.562;9.192;2022-12-07T02:01:36;5.20;;;4.80;;
10299;SDS011;5195;48.562;9.192;2022-12-07T02:04:11;6.97;;;6.37;;
10299;SDS011;5195;48.562;9.192;2022-12-07T02:06:47;6.20;;;5.70;;
10299;SDS011;5195;48.562;9.192;2022-12-07T02:09:23;6.80;;;6.30;;
10299;SDS011;5195;48.562;9.192;2022-12-07T02:11:59;6.53;;;6.13;;
10299;SDS011;5195;48.562;9.192;2022-12-07T02:14:34;6.17;;;5.67;;
10299;SDS011;5195;48.562;9.192;2022-12-07T02:17:21;5.70;;;5.23;;
10299;SDS011;5195;48.562;9.192;2022-12-07T02:23:23;7.50;;;6.90;;
10299;SDS011;5195;48.562;9.192;2022-12-07T02:26:17;7.20;;;6.70;;
10299;SDS011;5195;48.562;9.192;2022-12-07T02:29:17;7.60;;;7.07;;
10299;SDS011;5195;48.562;9.192;2022-12-07T02:32:10;7.50;;;7.00;;
10299;SDS011;5195;48.562;9.192;2022-12-07T02:43:16;10.10;;;9.30;;
10299;SDS011;5195;48.562;9.192;2022-12-07T02:45:53;8.90;;;8.10;;
10299;SDS011;5195;48.562;9.192;2022-12-07T02:48:28;10.87;;;10.07;;
10299;SDS011;5195;48.562;9.192;2022-12-07T02:51:04;9.70;;;8.80;;
10299;SDS011;5195;48.562;9.192;2022-12-07T02:53:43;11.50;;;10.67;;
10299;SDS011;5195;48.562;9.192;2022-12-07T02:59:38;9.70;;;8.90;;
10299;SDS011;5195;48.562;9.192;2022-12-07T03:08:21;9.70;;;8.90;;
10299;SDS011;5195;48.562;9.192;2022-12-07T03:11:00;9.23;;;8.47;;
10299;SDS011;5195;48.562;9.192;2022-12-07T03:13:39;8.10;;;7.50;;
10299;SDS011;5195;48.562;9.192;2022-12-07T03:16:20;8.60;;;8.00;;
10299;SDS011;5195;48.562;9.192;2022-12-07T03:18:57;9.93;;;9.23;;
10299;SDS011;5195;48.562;9.192;2022-12-07T03:21:31;10.43;;;9.73;;
10299;SDS011;5195;48.562;9.192;2022-12-07T03:24:08;11.17;;;10.27;;
10299;SDS011;5195;48.562;9.192;2022-12-07T03:26:43;10.90;;;10.20;;
10299;SDS011;5195;48.562;9.192;2022-12-07T03:29:19;10.83;;;10.07;;
10299;SDS011;5195;48.562;9.192;2022-12-07T03:32:08;9.13;;;8.40;;
10299;SDS011;5195;48.562;9.192;2022-12-07T03:34:47;10.40;;;9.60;;
10299;SDS011;5195;48.562;9.192;2022-12-07T03:37:26;10.87;;;10.07;;
10299;SDS011;5195;48.562;9.192;2022-12-07T03:43:15;10.47;;;9.67;;
10299;SDS011;5195;48.562;9.192;2022-12-07T03:45:54;8.07;;;7.43;;
10299;SDS011;5195;48.562;9.192;2022-12-07T03:54:05;8.97;;;8.27;;
10299;SDS011;5195;48.562;9.192;2022-12-07T03:56:38;10.60;;;9.83;;
10299;SDS011;5195;48.562;9.192;2022-12-07T03:59:14;11.35;;;10.55;;
10299;SDS011;5195;48.562;9.192;2022-12-07T04:01:55;10.53;;;9.83;;
10299;SDS011;5195;48.562;9.192;2022-12-07T04:04:29;8.80;;;8.00;;
10299;SDS011;5195;48.562;9.192;2022-12-07T04:07:05;9.70;;;9.00;;
10299;SDS011;5195;48.562;9.192;2022-12-07T04:09:41;10.30;;;9.50;;
10299;SDS011;5195;48.562;9.192;2022-12-07T04:12:16;9.27;;;8.68;;
10299;SDS011;5195;48.562;9.192;2022-12-07T04:14:52;7.50;;;6.90;;
10299;SDS011;5195;48.562;9.192;2022-12-07T04:17:27;9.60;;;8.70;;
10299;SDS011;5195;48.562;9.192;2022-12-07T04:20:03;9.65;;;8.95;;
10299;SDS011;5195;48.562;9.192;2022-12-07T04:22:40;8.40;;;7.60;;
10299;SDS011;5195;48.562;9.192;2022-12-07T04:25:15;10.18;;;9.40;;
10299;SDS011;5195;48.562;9.192;2022-12-07T04:27:52;9.60;;;8.83;;
10299;SDS011;5195;48.562;9.192;2022-12-07T04:30:28;8.80;;;8.10;;
10299;SDS011;5195;48.562;9.192;2022-12-07T04:33:03;8.30;;;7.60;;
10299;SDS011;5195;48.562;9.192;2022-12-07T04:35:39;9.48;;;8.82;;
10299;SDS011;5195;48.562;9.192;2022-12-07T04:38:15;7.93;;;7.20;;
10299;SDS011;5195;48.562;9.192;2022-12-07T04:40:51;8.13;;;7.50;;
10299;SDS011;5195;48.562;9.192;2022-12-07T04:43:26;10.38;;;9.57;;
10299;SDS011;5195;48.562;9.192;2022-12-07T04:46:02;10.67;;;9.87;;
10299;SDS011;5195;48.562;9.192;2022-12-07T04:48:38;10.17;;;9.37;;
10299;SDS011;5195;48.562;9.192;2022-12-07T04:51:22;8.50;;;7.80;;
10299;SDS011;5195;48.562;9.192;2022-12-07T04:53:59;10.17;;;9.47;;
10299;SDS011;5195;48.562;9.192;2022-12-07T04:56:34;10.85;;;10.00;;
10299;SDS011;5195;48.562;9.192;2022-12-07T04:59:12;10.18;;;9.38;;
10299;SDS011;5195;48.562;9.192;2022-12-07T05:01:48;7.67;;;7.07;;
10299;SDS011;5195;48.562;9.192;2022-12-07T05:04:24;9.20;;;8.60;;
10299;SDS011;5195;48.562;9.192;2022-12-07T05:07:00;9.80;;;9.10;;
10299;SDS011;5195;48.562;9.192;2022-12-07T05:09:36;9.20;;;8.52;;
10299;SDS011;5195;48.562;9.192;2022-12-07T05:12:12;8.75;;;8.15;;
10299;SDS011;5195;48.562;9.192;2022-12-07T05:14:47;7.77;;;7.17;;
10299;SDS011;5195;48.562;9.192;2022-12-07T05:17:23;9.80;;;9.00;;
10299;SDS011;5195;48.562;9.192;2022-12-07T05:19:58;8.27;;;7.67;;
10299;SDS011;5195;48.562;9.192;2022-12-07T05:22:34;8.83;;;8.13;;
10299;SDS011;5195;48.562;9.192;2022-12-07T05:25:10;9.13;;;8.43;;
10299;SDS011;5195;48.562;9.192;2022-12-07T05:27:45;7.57;;;6.97;;
10299;SDS011;5195;48.562;9.192;2022-12-07T05:30:21;9.73;;;9.13;;
10299;SDS011;5195;48.562;9.192;2022-12-07T05:32:57;9.40;;;8.70;;
10299;SDS011;5195;48.562;9.192;2022-12-07T05:35:32;9.60;;;8.90;;
10299;SDS011;5195;48.562;9.192;2022-12-07T05:38:08;9.63;;;8.93;;
10299;SDS011;5195;48.562;9.192;2022-12-07T05:40:43;9.73;;;9.02;;
10299;SDS011;5195;48.562;9.192;2022-12-07T05:43:19;7.87;;;7.27;;
10299;SDS011;5195;48.562;9.192;2022-12-07T05:45:55;9.88;;;9.07;;
10299;SDS011;5195;48.562;9.192;2022-12-07T05:48:30;9.27;;;8.57;;
10299;SDS011;5195;48.562;9.192;2022-12-07T05:51:06;7.67;;;7.13;;
10299;SDS011;5195;48.562;9.192;2022-12-07T05:53:41;9.40;;;8.60;;
10299;SDS011;5195;48.562;9.192;2022-12-07T05:56:17;9.93;;;9.18;;
10299;SDS011;5195;48.562;9.192;2022-12-07T05:58:53;8.47;;;7.67;;
10299;SDS011;5195;48.562;9.192;2022-12-07T06:01:55;7.83;;;7.13;;
10299;SDS011;5195;48.562;9.192;2022-12-07T06:04:31;7.87;;;7.27;;
10299;SDS011;5195;48.562;9.192;2022-12-07T06:07:05;10.45;;;9.55;;
10299;SDS011;5195;48.562;9.192;2022-12-07T06:09:42;11.32;;;10.40;;
10299;SDS011;5195;48.562;9.192;2022-12-07T06:12:17;9.17;;;8.23;;
10299;SDS011;5195;48.562;9.192;2022-12-07T06:15:09;10.07;;;9.27;;
10299;SDS011;5195;48.562;9.192;2022-12-07T06:17:44;11.12;;;10.23;;
10299;SDS011;5195;48.562;9.192;2022-12-07T06:20:21;9.50;;;8.70;;
10299;SDS011;5195;48.562;9.192;2022-12-07T06:22:58;10.68;;;9.88;;
10299;SDS011;5195;48.562;9.192;2022-12-07T06:25:33;11.47;;;10.57;;
10299;SDS011;5195;48.562;9.192;2022-12-07T06:28:09;9.83;;;9.03;;
10299;SDS011;5195;48.562;9.192;2022-12-07T06:30:44;10.90;;;10.10;;
10299;SDS011;5195;48.562;9.192;2022-12-07T06:33:20;9.23;;;8.37;;
10299;SDS011;5195;48.562;9.192;2022-12-07T06:35:56;7.60;;;6.90;;
10299;SDS011;5195;48.562;9.192;2022-12-07T06:38:33;10.35;;;9.50;;
10299;SDS011;5195;48.562;9.192;2022-12-07T06:41:08;10.35;;;9.55;;
10299;SDS011;5195;48.562;9.192;2022-12-07T06:43:44;9.67;;;9.00;;
10299;SDS011;5195;48.562;9.192;2022-12-07T06:46:19;9.87;;;9.10;;
10299;SDS011;5195;48.562;9.192;2022-12-07T06:48:55;10.10;;;9.40;;
10299;SDS011;5195;48.562;9.192;2022-12-07T06:51:32;11.07;;;10.27;;
10299;SDS011;5195;48.562;9.192;2022-12-07T06:54:08;9.70;;;8.90;;
10299;SDS011;5195;48.562;9.192;2022-12-07T06:56:43;10.27;;;9.37;;
10299;SDS011;5195;48.562;9.192;2022-12-07T06:59:20;10.80;;;9.93;;
10299;SDS011;5195;48.562;9.192;2022-12-07T07:01:55;8.93;;;8.13;;
10299;SDS011;5195;48.562;9.192;2022-12-07T07:04:32;8.57;;;7.87;;
10299;SDS011;5195;48.562;9.192;2022-12-07T07:07:07;6.77;;;5.67;;
10299;SDS011;5195;48.562;9.192;2022-12-07T07:09:43;9.93;;;8.40;;
10299;SDS011;5195;48.562;9.192;2022-12-07T07:12:21;9.17;;;8.37;;
10299;SDS011;5195;48.562;9.192;2022-12-07T07:14:56;7.77;;;7.07;;
10299;SDS011;5195;48.562;9.192;2022-12-07T07:17:32;9.70;;;8.90;;
10299;SDS011;5195;48.562;9.192;2022-12-07T07:20:08;9.90;;;9.10;;
10299;SDS011;5195;48.562;9.192;2022-12-07T07:22:45;9.48;;;8.88;;
10299;SDS011;5195;48.562;9.192;2022-12-07T07:25:20;7.87;;;7.27;;
10299;SDS011;5195;48.562;9.192;2022-12-07T07:27:56;6.67;;;6.27;;
10299;SDS011;5195;48.562;9.192;2022-12-07T07:30:31;7.47;;;6.93;;
10299;SDS011;5195;48.562;9.192;2022-12-07T07:33:07;8.10;;;7.60;;
10299;SDS011;5195;48.562;9.192;2022-12-07T07:35:45;8.13;;;7.53;;
10299;SDS011;5195;48.562;9.192;2022-12-07T07:38:20;6.37;;;5.87;;
10299;SDS011;5195;48.562;9.192;2022-12-07T07:40:56;5.87;;;5.47;;
10299;SDS011;5195;48.562;9.192;2022-12-07T07:43:32;5.93;;;5.53;;
10299;SDS011;5195;48.562;9.192;2022-12-07T07:46:08;7.23;;;6.73;;
10299;SDS011;5195;48.562;9.192;2022-12-07T07:48:45;7.10;;;6.60;;
10299;SDS011;5195;48.562;9.192;2022-12-07T07:51:20;6.93;;;6.43;;
10299;SDS011;5195;48.562;9.192;2022-12-07T07:53:56;5.83;;;5.43;;
10299;SDS011;5195;48.562;9.192;2022-12-07T07:56:31;6.80;;;6.30;;
10299;SDS011;5195;48.562;9.192;2022-12-07T07:59:07;6.53;;;6.10;;
10299;SDS011;5195;48.562;9.192;2022-12-07T08:01:43;5.87;;;5.47;;
10299;SDS011;5195;48.562;9.192;2022-12-07T08:04:18;6.07;;;5.67;;
10299;SDS011;5195;48.562;9.192;2022-12-07T08:06:54;7.60;;;7.10;;
10299;SDS011;5195;48.562;9.192;2022-12-07T08:09:29;7.47;;;7.07;;
10299;SDS011;5195;48.562;9.192;2022-12-07T08:12:06;6.80;;;6.40;;
10299;SDS011;5195;48.562;9.192;2022-12-07T08:14:41;7.83;;;7.23;;
10299;SDS011;5195;48.562;9.192;2022-12-07T08:17:17;6.93;;;6.23;;
10299;SDS011;5195;48.562;9.192;2022-12-07T08:19:53;5.97;;;5.57;;
10299;SDS011;5195;48.562;9.192;2022-12-07T08:22:29;6.90;;;6.30;;
10299;SDS011;5195;48.562;9.192;2022-12-07T08:25:04;7.37;;;6.77;;
10299;SDS011;5195;48.562;9.192;2022-12-07T08:27:42;9.37;;;8.60;;
10299;SDS011;5195;48.562;9.192;2022-12-07T08:30:18;7.70;;;7.10;;
10299;SDS011;5195;48.562;9.192;2022-12-07T08:32:55;9.70;;;9.00;;
10299;SDS011;5195;48.562;9.192;2022-12-07T08:35:32;9.48;;;8.85;;
10299;SDS011;5195;48.562;9.192;2022-12-07T08:38:06;9.80;;;9.00;;
10299;SDS011;5195;48.562;9.192;2022-12-07T08:40:43;8.00;;;7.40;;
10299;SDS011;5195;48.562;9.192;2022-12-07T08:43:19;9.70;;;8.88;;
10299;SDS011;5195;48.562;9.192;2022-12-07T08:46:19;10.18;;;9.38;;
10299;SDS011;5195;48.562;9.192;2022-12-07T08:48:50;9.57;;;8.77;;
10299;SDS011;5195;48.562;9.192;2022-12-07T08:51:25;9.75;;;9.05;;
10299;SDS011;5195;48.562;9.192;2022-12-07T08:54:01;9.60;;;8.90;;
10299;SDS011;5195;48.562;9.192;2022-12-07T08:56:36;9.63;;;8.93;;
10299;SDS011;5195;48.562;9.192;2022-12-07T08:59:12;9.70;;;9.00;;
10299;SDS011;5195;48.562;9.192;2022-12-07T09:01:48;10.03;;;9.23;;
10299;SDS011;5195;48.562;9.192;2022-12-07T09:04:24;8.10;;;7.50;;
10299;SDS011;5195;48.562;9.192;2022-12-07T09:06:59;8.17;;;7.43;;
10299;SDS011;5195;48.562;9.192;2022-12-07T09:09:35;8.63;;;7.93;;
10299;SDS011;5195;48.562;9.192;2022-12-07T09:12:11;9.97;;;9.17;;
10299;SDS011;5195;48.562;9.192;2022-12-07T09:14:47;8.50;;;7.90;;
10299;SDS011;5195;48.562;9.192;2022-12-07T09:17:23;9.77;;;9.10;;
10299;SDS011;5195;48.562;9.192;2022-12-07T09:19:58;10.63;;;9.80;;
10299;SDS011;5195;48.562;9.192;2022-12-07T09:22:36;6.68;;;6.28;;
10299;SDS011;5195;48.562;9.192;2022-12-07T09:25:11;6.20;;;5.80;;
10299;SDS011;5195;48.562;9.192;2022-12-07T09:27:48;5.57;;;5.17;;
10299;SDS011;5195;48.562;9.192;2022-12-07T09:30:25;5.93;;;5.47;;
10299;SDS011;5195;48.562;9.192;2022-12-07T09:33:00;7.13;;;6.53;;
10299;SDS011;5195;48.562;9.192;2022-12-07T09:35:49;7.13;;;6.63;;
10299;SDS011;5195;48.562;9.192;2022-12-07T09:38:25;5.97;;;5.57;;
10299;SDS011;5195;48.562;9.192;2022-12-07T09:41:09;6.70;;;6.10;;
10299;SDS011;5195;48.562;9.192;2022-12-07T09:43:39;6.90;;;6.37;;
10299;SDS011;5195;48.562;9.192;2022-12-07T09:46:17;7.10;;;6.60;;
10299;SDS011;5195;48.562;9.192;2022-12-07T09:48:53;7.10;;;6.50;;
10299;SDS011;5195;48.562;9.192;2022-12-07T09:51:31;6.80;;;6.30;;
10299;SDS011;5195;48.562;9.192;2022-12-07T09:54:07;6.60;;;6.10;;
10299;SDS011;5195;48.562;9.192;2022-12-07T09:56:43;6.17;;;5.67;;
10299;SDS011;5195;48.562;9.192;2022-12-07T09:59:19;7.05;;;6.65;;
10299;SDS011;5195;48.562;9.192;2022-12-07T10:01:55;7.60;;;6.90;;
10299;SDS011;5195;48.562;9.192;2022-12-07T10:04:32;7.63;;;6.97;;
10299;SDS011;5195;48.562;9.192;2022-12-07T10:07:07;14.33;;;11.70;;
10299;SDS011;5195;48.562;9.192;2022-12-07T10:09:44;9.33;;;6.93;;
10299;SDS011;5195;48.562;9.192;2022-12-07T10:12:19;6.63;;;6.17;;
10299;SDS011;5195;48.562;9.192;2022-12-07T10:15:02;6.93;;;6.33;;
10299;SDS011;5195;48.562;9.192;2022-12-07T10:17:37;7.70;;;7.20;;
10299;SDS011;5195;48.562;9.192;2022-12-07T10:20:17;7.33;;;6.83;;
10299;SDS011;5195;48.562;9.192;2022-12-07T10:22:55;6.47;;;6.03;;
10299;SDS011;5195;48.562;9.192;2022-12-07T10:25:31;6.97;;;6.47;;
10299;SDS011;5195;48.562;9.192;2022-12-07T10:28:13;6.80;;;6.37;;
10299;SDS011;5195;48.562;9.192;2022-12-07T10:30:58;7.00;;;6.50;;
10299;SDS011;5195;48.562;9.192;2022-12-07T10:33:38;6.50;;;6.10;;
10299;SDS011;5195;48.562;9.192;2022-12-07T10:36:33;6.45;;;5.95;;
10299;SDS011;5195;48.562;9.192;2022-12-07T10:41:58;6.60;;;6.00;;
10299;SDS011;5195;48.562;9.192;2022-12-07T10:44:34;6.00;;;5.50;;
10299;SDS011;5195;48.562;9.192;2022-12-07T10:53:19;4.87;;;4.57;;
10299;SDS011;5195;48.562;9.192;2022-12-07T11:01:51;6.70;;;6.10;;
10299;SDS011;5195;48.562;9.192;2022-12-07T11:07:36;5.90;;;5.50;;
10299;SDS011;5195;48.562;9.192;2022-12-07T11:14:01;5.97;;;5.37;;
10299;SDS011;5195;48.562;9.192;2022-12-07T11:18:41;5.70;;;5.30;;
10299;SDS011;5195;48.562;9.192;2022-12-07T11:21:38;5.87;;;5.47;;
10299;SDS011;5195;48.562;9.192;2022-12-07T11:24:18;6.60;;;6.10;;
10299;SDS011;5195;48.562;9.192;2022-12-07T11:32:56;6.43;;;6.03;;
10299;SDS011;5195;48.562;9.192;2022-12-07T11:38:47;6.60;;;6.10;;
10299;SDS011;5195;48.562;9.192;2022-12-07T11:41:28;6.85;;;6.25;;
10299;SDS011;5195;48.562;9.192;2022-12-07T11:46:50;7.60;;;6.05;;
10299;SDS011;5195;48.562;9.192;2022-12-07T11:52:27;5.90;;;5.50;;
10299;SDS011;5195;48.562;9.192;2022-12-07T11:55:01;9.73;;;5.03;;
10299;SDS011;5195;48.562;9.192;2022-12-07T11:57:37;6.13;;;5.73;;
10299;SDS011;5195;48.562;9.192;2022-12-07T12:00:14;6.47;;;5.97;;
10299;SDS011;5195;48.562;9.192;2022-12-07T12:03:11;5.40;;;5.00;;
10299;SDS011;5195;48.562;9.192;2022-12-07T12:05:45;4.87;;;4.57;;
10299;SDS011;5195;48.562;9.192;2022-12-07T12:08:27;6.20;;;5.85;;
10299;SDS011;5195;48.562;9.192;2022-12-07T12:11:05;5.72;;;5.35;;
10299;SDS011;5195;48.562;9.192;2022-12-07T12:19:32;4.63;;;4.33;;
10299;SDS011;5195;48.562;9.192;2022-12-07T12:22:32;6.27;;;5.87;;
10299;SDS011;5195;48.562;9.192;2022-12-07T12:25:04;4.63;;;4.33;;
10299;SDS011;5195;48.562;9.192;2022-12-07T12:27:39;4.60;;;4.30;;
10299;SDS011;5195;48.562;9.192;2022-12-07T12:30:35;5.50;;;5.10;;
10299;SDS011;5195;48.562;9.192;2022-12-07T12:33:28;6.73;;;6.30;;
10299;SDS011;5195;48.562;9.192;2022-12-07T12:47:54;4.73;;;4.30;;
10299;SDS011;5195;48.562;9.192;2022-12-07T12:50:16;4.97;;;4.47;;
10299;SDS011;5195;48.562;9.192;2022-12-07T12:59:17;4.80;;;4.50;;
10299;SDS011;5195;48.562;9.192;2022-12-07T13:01:32;4.90;;;4.57;;
10299;SDS011;5195;48.562;9.192;2022-12-07T13:04:16;6.00;;;5.60;;
10299;SDS011;5195;48.562;9.192;2022-12-07T13:07:11;5.17;;;4.77;;
10299;SDS011;5195;48.562;9.192;2022-12-07T13:09:47;6.17;;;5.70;;
10299;SDS011;5195;48.562;9.192;2022-12-07T13:12:22;6.20;;;5.80;;
10299;SDS011;5195;48.562;9.192;2022-12-07T13:14:58;5.30;;;5.00;;
10299;SDS011;5195;48.562;9.192;2022-12-07T13:20:42;5.23;;;4.73;;
10299;SDS011;5195;48.562;9.192;2022-12-07T13:22:47;6.05;;;5.65;;
10299;SDS011;5195;48.562;9.192;2022-12-07T13:28:21;5.10;;;4.73;;
10299;SDS011;5195;48.562;9.192;2022-12-07T13:34:00;6.00;;;5.60;;
10299;SDS011;5195;48.562;9.192;2022-12-07T13:36:38;6.75;;;6.28;;
10299;SDS011;5195;48.562;9.192;2022-12-07T13:41:55;5.72;;;5.40;;
10299;SDS011;5195;48.562;9.192;2022-12-07T13:44:33;5.37;;;5.00;;
10299;SDS011;5195;48.562;9.192;2022-12-07T13:49:53;5.87;;;5.47;;
10299;SDS011;5195;48.562;9.192;2022-12-07T13:52:27;5.80;;;5.40;;
10299;SDS011;5195;48.562;9.192;2022-12-07T13:57:41;5.30;;;4.80;;
10299;SDS011;5195;48.562;9.192;2022-12-07T14:00:17;4.53;;;4.23;;
10299;SDS011;5195;48.562;9.192;2022-12-07T14:02:58;5.03;;;4.70;;
10299;SDS011;5195;48.562;9.192;2022-12-07T14:05:36;4.60;;;4.17;;
10299;SDS011;5195;48.562;9.192;2022-12-07T14:16:30;6.57;;;5.87;;
10299;SDS011;5195;48.562;9.192;2022-12-07T14:19:05;5.70;;;5.27;;
10299;SDS011;5195;48.562;9.192;2022-12-07T14:21:40;5.40;;;5.00;;
10299;SDS011;5195;48.562;9.192;2022-12-07T14:24:16;5.67;;;5.17;;
10299;SDS011;5195;48.562;9.192;2022-12-07T14:26:51;6.55;;;5.90;;
10299;SDS011;5195;48.562;9.192;2022-12-07T14:35:02;19.62;;;17.67;;
10299;SDS011;5195;48.562;9.192;2022-12-07T14:37:45;17.50;;;15.87;;
10299;SDS011;5195;48.562;9.192;2022-12-07T14:40:20;10.57;;;9.77;;
10299;SDS011;5195;48.562;9.192;2022-12-07T14:43:01;9.10;;;8.30;;
10299;SDS011;5195;48.562;9.192;2022-12-07T14:45:35;7.63;;;7.13;;
10299;SDS011;5195;48.562;9.192;2022-12-07T14:48:14;11.37;;;10.57;;
10299;SDS011;5195;48.562;9.192;2022-12-07T14:50:50;7.70;;;7.10;;
10299;SDS011;5195;48.562;9.192;2022-12-07T14:53:33;6.40;;;5.80;;
10299;SDS011;5195;48.562;9.192;2022-12-07T14:56:09;7.27;;;6.40;;
10299;SDS011;5195;48.562;9.192;2022-12-07T14:58:45;7.30;;;5.80;;
10299;SDS011;5195;48.562;9.192;2022-12-07T15:01:20;6.03;;;5.40;;
10299;SDS011;5195;48.562;9.192;2022-12-07T15:03:59;6.13;;;5.20;;
10299;SDS011;5195;48.562;9.192;2022-12-07T15:06:34;7.47;;;6.40;;
10299;SDS011;5195;48.562;9.192;2022-12-07T15:09:11;6.97;;;6.47;;
10299;SDS011;5195;48.562;9.192;2022-12-07T15:11:49;6.77;;;6.37;;
10299;SDS011;5195;48.562;9.192;2022-12-07T15:14:27;6.70;;;6.20;;
10299;SDS011;5195;48.562;9.192;2022-12-07T15:17:02;4.93;;;4.53;;
10299;SDS011;5195;48.562;9.192;2022-12-07T15:19:38;4.75;;;4.35;;
10299;SDS011;5195;48.562;9.192;2022-12-07T15:22:18;3.50;;;3.30;;
10299;SDS011;5195;48.562;9.192;2022-12-07T15:24:55;3.80;;;3.50;;
10299;SDS011;5195;48.562;9.192;2022-12-07T15:27:32;3.80;;;3.50;;
10299;SDS011;5195;48.562;9.192;2022-12-07T15:30:08;3.80;;;3.60;;
10299;SDS011;5195;48.562;9.192;2022-12-07T15:32:48;4.90;;;4.50;;
10299;SDS011;5195;48.562;9.192;2022-12-07T15:35:20;4.70;;;4.40;;
10299;SDS011;5195;48.562;9.192;2022-12-07T15:37:56;4.90;;;4.60;;
10299;SDS011;5195;48.562;9.192;2022-12-07T15:40:31;6.35;;;5.90;;
10299;SDS011;5195;48.562;9.192;2022-12-07T15:43:10;6.90;;;6.40;;
10299;SDS011;5195;48.562;9.192;2022-12-07T15:45:49;5.37;;;4.97;;
10299;SDS011;5195;48.562;9.192;2022-12-07T15:48:21;6.03;;;5.13;;
10299;SDS011;5195;48.562;9.192;2022-12-07T15:51:07;6.22;;;5.72;;
10299;SDS011;5195;48.562;9.192;2022-12-07T15:53:42;5.37;;;4.97;;
10299;SDS011;5195;48.562;9.192;2022-12-07T15:56:17;5.73;;;5.23;;
10299;SDS011;5195;48.562;9.192;2022-12-07T15:58:53;6.93;;;6.43;;
10299;SDS011;5195;48.562;9.192;2022-12-07T16:01:29;6.10;;;5.60;;
10299;SDS011;5195;48.562;9.192;2022-12-07T16:04:05;6.40;;;5.90;;
10299;SDS011;5195;48.562;9.192;2022-12-07T16:06:42;7.18;;;6.60;;
10299;SDS011;5195;48.562;9.192;2022-12-07T16:09:18;7.45;;;6.75;;
10299;SDS011;5195;48.562;9.192;2022-12-07T16:11:54;7.60;;;6.77;;
10299;SDS011;5195;48.562;9.192;2022-12-07T16:14:30;8.00;;;7.40;;
10299;SDS011;5195;48.562;9.192;2022-12-07T16:17:07;8.80;;;8.07;;
10299;SDS011;5195;48.562;9.192;2022-12-07T16:19:43;8.77;;;7.90;;
10299;SDS011;5195;48.562;9.192;2022-12-07T16:22:18;7.73;;;7.13;;
10299;SDS011;5195;48.562;9.192;2022-12-07T16:24:54;8.30;;;7.60;;
10299;SDS011;5195;48.562;9.192;2022-12-07T16:27:29;7.57;;;6.97;;
10299;SDS011;5195;48.562;9.192;2022-12-07T16:30:05;7.93;;;7.40;;
10299;SDS011;5195;48.562;9.192;2022-12-07T16:32:42;7.17;;;6.67;;
10299;SDS011;5195;48.562;9.192;2022-12-07T16:35:17;7.60;;;6.90;;
10299;SDS011;5195;48.562;9.192;2022-12-07T16:37:53;7.63;;;6.93;;
10299;SDS011;5195;48.562;9.192;2022-12-07T16:40:29;9.33;;;8.60;;
10299;SDS011;5195;48.562;9.192;2022-12-07T16:43:04;8.50;;;7.80;;
10299;SDS011;5195;48.562;9.192;2022-12-07T16:45:42;7.00;;;6.50;;
10299;SDS011;5195;48.562;9.192;2022-12-07T16:48:18;8.32;;;7.53;;
10299;SDS011;5195;48.562;9.192;2022-12-07T16:50:54;9.32;;;8.50;;
10299;SDS011;5195;48.562;9.192;2022-12-07T16:53:29;7.57;;;6.87;;
10299;SDS011;5195;48.562;9.192;2022-12-07T16:56:12;5.63;;;5.23;;
10299;SDS011;5195;48.562;9.192;2022-12-07T16:58:47;6.80;;;6.30;;
10299;SDS011;5195;48.562;9.192;2022-12-07T17:01:24;6.07;;;5.50;;
10299;SDS011;5195;48.562;9.192;2022-12-07T17:04:01;5.97;;;5.57;;
10299;SDS011;5195;48.562;9.192;2022-12-07T17:06:36;6.00;;;5.60;;
10299;SDS011;5195;48.562;9.192;2022-12-07T17:09:12;5.63;;;5.23;;
10299;SDS011;5195;48.562;9.192;2022-12-07T17:11:47;6.43;;;5.93;;
10299;SDS011;5195;48.562;9.192;2022-12-07T17:14:23;6.27;;;5.77;;
10299;SDS011;5195;48.562;9.192;2022-12-07T17:17:20;6.33;;;5.73;;
10299;SDS011;5195;48.562;9.192;2022-12-07T17:19:56;5.70;;;5.30;;
10299;SDS011;5195;48.562;9.192;2022-12-07T17:22:31;5.70;;;5.30;;
10299;SDS011;5195;48.562;9.192;2022-12-07T17:25:07;5.37;;;4.93;;
10299;SDS011;5195;48.562;9.192;2022-12-07T17:27:43;4.87;;;4.47;;
10299;SDS011;5195;48.562;9.192;2022-12-07T17:30:19;6.40;;;5.90;;
10299;SDS011;5195;48.562;9.192;2022-12-07T17:32:54;5.40;;;5.10;;
10299;SDS011;5195;48.562;9.192;2022-12-07T17:35:31;6.57;;;6.07;;
10299;SDS011;5195;48.562;9.192;2022-12-07T17:38:06;7.20;;;6.70;;
10299;SDS011;5195;48.562;9.192;2022-12-07T17:40:42;8.20;;;7.60;;
10299;SDS011;5195;48.562;9.192;2022-12-07T17:43:20;8.57;;;7.97;;
10299;SDS011;5195;48.562;9.192;2022-12-07T17:45:55;11.18;;;10.25;;
10299;SDS011;5195;48.562;9.192;2022-12-07T17:48:32;10.52;;;9.63;;
10299;SDS011;5195;48.562;9.192;2022-12-07T17:51:07;10.10;;;9.20;;
10299;SDS011;5195;48.562;9.192;2022-12-07T17:54:04;9.40;;;8.60;;
10299;SDS011;5195;48.562;9.192;2022-12-07T17:56:40;9.87;;;8.90;;
10299;SDS011;5195;48.562;9.192;2022-12-07T17:59:15;10.90;;;10.00;;